CheckWX is a tool to help pilots better visualize weather data.  It is not intended as a substitute for an official pre-flight weather briefing.

04:43:34 UTC

EGUL METAR
RAF Lakenheath Airport
Lakenheath, United Kingdom
Current

48 mins ago

EGUL 270356Z AUTO 04009KT 9999 OVC015 12/10 A3043 RMK AO2 SLP308 T01200097 $
Observed
Jun-27 @ 03:56 UTC
Wind
  • 040° at 9 KTS
Visibility
10,000+ meters
Flight Rules
MVFR
Cloud Levels
  • Overcast at 1,500' AGL
Temperature
12°C / 54°F
Dewpoint
10°C / 50°F
Humidity
88%
Altimeter
30.43" Hg
Pressure
1030.52 hPa
Previous

2 hours ago

EGUL 270256Z AUTO 05007KT 9999 OVC015 12/10 A3043 RMK AO2 SLP308 T01210098 55001 $
Observed
Jun-27 @ 02:56 UTC
Wind
  • 050° at 7 KTS
Visibility
10,000+ meters
Flight Rules
MVFR
Cloud Levels
  • Overcast at 1,500' AGL
Temperature
12°C / 54°F
Dewpoint
10°C / 50°F
Humidity
88%
Altimeter
30.43" Hg
Pressure
1030.52 hPa
Previous

3 hours ago

EGUL 270156Z AUTO 05009KT 9999 OVC015 12/10 A3043 RMK AO2 SLP308 T01230100 $
Observed
Jun-27 @ 01:56 UTC
Wind
  • 050° at 9 KTS
Visibility
10,000+ meters
Flight Rules
MVFR
Cloud Levels
  • Overcast at 1,500' AGL
Temperature
12°C / 54°F
Dewpoint
10°C / 50°F
Humidity
88%
Altimeter
30.43" Hg
Pressure
1030.52 hPa